sensor_id;sensor_type;location;lat;lon;timestamp;P1;durP1;ratioP1;P2;durP2;ratioP2
24030;SDS011;12240;51.142;22.486;2024-01-16T00:02:44;5.40;;;2.20;;
24030;SDS011;12240;51.142;22.486;2024-01-16T00:05:11;9.30;;;2.20;;
24030;SDS011;12240;51.142;22.486;2024-01-16T00:07:38;6.70;;;2.50;;
24030;SDS011;12240;51.142;22.486;2024-01-16T00:10:09;8.70;;;2.70;;
24030;SDS011;12240;51.142;22.486;2024-01-16T00:12:36;8.80;;;2.60;;
24030;SDS011;12240;51.142;22.486;2024-01-16T00:15:02;5.40;;;2.10;;
24030;SDS011;12240;51.142;22.486;2024-01-16T00:17:29;11.20;;;2.80;;
24030;SDS011;12240;51.142;22.486;2024-01-16T00:19:56;10.20;;;3.10;;
24030;SDS011;12240;51.142;22.486;2024-01-16T00:22:27;6.90;;;2.40;;
24030;SDS011;12240;51.142;22.486;2024-01-16T00:24:54;5.80;;;2.60;;
24030;SDS011;12240;51.142;22.486;2024-01-16T00:27:20;9.10;;;3.20;;
24030;SDS011;12240;51.142;22.486;2024-01-16T00:29:47;5.40;;;2.60;;
24030;SDS011;12240;51.142;22.486;2024-01-16T00:32:14;5.70;;;2.00;;
24030;SDS011;12240;51.142;22.486;2024-01-16T00:34:42;9.80;;;2.60;;
24030;SDS011;12240;51.142;22.486;2024-01-16T00:37:09;7.10;;;2.10;;
24030;SDS011;12240;51.142;22.486;2024-01-16T00:39:36;7.20;;;1.70;;
24030;SDS011;12240;51.142;22.486;2024-01-16T00:42:03;6.00;;;1.70;;
24030;SDS011;12240;51.142;22.486;2024-01-16T00:44:29;5.40;;;2.10;;
24030;SDS011;12240;51.142;22.486;2024-01-16T00:53:49;2.60;;;1.70;;
24030;SDS011;12240;51.142;22.486;2024-01-16T00:56:16;8.10;;;2.00;;
24030;SDS011;12240;51.142;22.486;2024-01-16T00:58:43;4.80;;;1.70;;
24030;SDS011;12240;51.142;22.486;2024-01-16T01:01:09;4.70;;;2.00;;
24030;SDS011;12240;51.142;22.486;2024-01-16T01:03:36;4.70;;;1.90;;
24030;SDS011;12240;51.142;22.486;2024-01-16T01:06:03;10.10;;;2.50;;
24030;SDS011;12240;51.142;22.486;2024-01-16T01:08:30;5.90;;;1.80;;
24030;SDS011;12240;51.142;22.486;2024-01-16T01:10:56;6.80;;;2.30;;
24030;SDS011;12240;51.142;22.486;2024-01-16T01:13:23;5.40;;;1.80;;
24030;SDS011;12240;51.142;22.486;2024-01-16T01:15:51;3.20;;;2.00;;
24030;SDS011;12240;51.142;22.486;2024-01-16T01:18:18;5.40;;;2.30;;
24030;SDS011;12240;51.142;22.486;2024-01-16T01:20:45;5.60;;;2.00;;
24030;SDS011;12240;51.142;22.486;2024-01-16T01:23:12;3.70;;;1.90;;
24030;SDS011;12240;51.142;22.486;2024-01-16T01:25:39;3.80;;;1.50;;
24030;SDS011;12240;51.142;22.486;2024-01-16T01:28:06;5.00;;;1.80;;
24030;SDS011;12240;51.142;22.486;2024-01-16T01:30:32;10.20;;;2.20;;
24030;SDS011;12240;51.142;22.486;2024-01-16T01:32:59;9.30;;;2.20;;
24030;SDS011;12240;51.142;22.486;2024-01-16T01:35:26;5.20;;;2.30;;
24030;SDS011;12240;51.142;22.486;2024-01-16T01:37:53;6.90;;;2.00;;
24030;SDS011;12240;51.142;22.486;2024-01-16T01:40:20;6.20;;;2.00;;
24030;SDS011;12240;51.142;22.486;2024-01-16T01:42:47;6.60;;;2.00;;
24030;SDS011;12240;51.142;22.486;2024-01-16T01:45:13;2.90;;;1.70;;
24030;SDS011;12240;51.142;22.486;2024-01-16T01:47:40;5.80;;;1.70;;
24030;SDS011;12240;51.142;22.486;2024-01-16T01:50:11;5.60;;;1.50;;
24030;SDS011;12240;51.142;22.486;2024-01-16T01:52:39;4.80;;;1.70;;
24030;SDS011;12240;51.142;22.486;2024-01-16T01:55:08;7.90;;;2.00;;
24030;SDS011;12240;51.142;22.486;2024-01-16T01:57:38;4.30;;;1.60;;
24030;SDS011;12240;51.142;22.486;2024-01-16T02:00:06;3.20;;;1.90;;
24030;SDS011;12240;51.142;22.486;2024-01-16T02:02:33;5.90;;;2.00;;
24030;SDS011;12240;51.142;22.486;2024-01-16T02:05:00;4.90;;;1.80;;
24030;SDS011;12240;51.142;22.486;2024-01-16T02:14:07;8.90;;;2.20;;
24030;SDS011;12240;51.142;22.486;2024-01-16T02:16:37;9.40;;;2.20;;
24030;SDS011;12240;51.142;22.486;2024-01-16T02:19:05;3.20;;;1.30;;
24030;SDS011;12240;51.142;22.486;2024-01-16T02:21:38;2.90;;;1.40;;
24030;SDS011;12240;51.142;22.486;2024-01-16T02:24:07;3.80;;;1.40;;
24030;SDS011;12240;51.142;22.486;2024-01-16T02:26:35;2.00;;;1.00;;
24030;SDS011;12240;51.142;22.486;2024-01-16T02:29:01;5.10;;;1.40;;
24030;SDS011;12240;51.142;22.486;2024-01-16T02:31:33;2.10;;;1.30;;
24030;SDS011;12240;51.142;22.486;2024-01-16T02:33:59;4.30;;;1.30;;
24030;SDS011;12240;51.142;22.486;2024-01-16T02:36:26;5.60;;;1.90;;
24030;SDS011;12240;51.142;22.486;2024-01-16T02:38:53;3.40;;;1.30;;
24030;SDS011;12240;51.142;22.486;2024-01-16T02:41:19;4.80;;;1.50;;
24030;SDS011;12240;51.142;22.486;2024-01-16T02:43:45;3.10;;;1.30;;
24030;SDS011;12240;51.142;22.486;2024-01-16T02:46:11;3.20;;;1.10;;
24030;SDS011;12240;51.142;22.486;2024-01-16T02:48:37;5.10;;;2.40;;
24030;SDS011;12240;51.142;22.486;2024-01-16T02:51:04;8.50;;;1.60;;
24030;SDS011;12240;51.142;22.486;2024-01-16T02:53:30;2.70;;;1.60;;
24030;SDS011;12240;51.142;22.486;2024-01-16T02:55:57;6.10;;;1.10;;
24030;SDS011;12240;51.142;22.486;2024-01-16T02:58:29;4.90;;;1.80;;
24030;SDS011;12240;51.142;22.486;2024-01-16T03:03:45;4.40;;;2.10;;
24030;SDS011;12240;51.142;22.486;2024-01-16T03:06:20;3.20;;;1.60;;
24030;SDS011;12240;51.142;22.486;2024-01-16T03:08:48;3.50;;;1.90;;
24030;SDS011;12240;51.142;22.486;2024-01-16T03:11:14;5.80;;;1.40;;
24030;SDS011;12240;51.142;22.486;2024-01-16T03:13:40;6.50;;;2.10;;
24030;SDS011;12240;51.142;22.486;2024-01-16T03:16:12;4.80;;;2.00;;
24030;SDS011;12240;51.142;22.486;2024-01-16T03:18:38;3.00;;;1.50;;
24030;SDS011;12240;51.142;22.486;2024-01-16T03:21:07;5.80;;;2.00;;
24030;SDS011;12240;51.142;22.486;2024-01-16T03:23:34;4.50;;;1.80;;
24030;SDS011;12240;51.142;22.486;2024-01-16T03:26:00;4.50;;;1.70;;
24030;SDS011;12240;51.142;22.486;2024-01-16T03:28:25;5.10;;;1.90;;
24030;SDS011;12240;51.142;22.486;2024-01-16T03:30:51;4.40;;;1.90;;
24030;SDS011;12240;51.142;22.486;2024-01-16T03:33:17;5.30;;;1.70;;
24030;SDS011;12240;51.142;22.486;2024-01-16T03:35:43;10.20;;;2.20;;
24030;SDS011;12240;51.142;22.486;2024-01-16T03:38:09;5.20;;;1.80;;
24030;SDS011;12240;51.142;22.486;2024-01-16T03:40:35;4.10;;;2.30;;
24030;SDS011;12240;51.142;22.486;2024-01-16T03:43:01;6.50;;;2.40;;
24030;SDS011;12240;51.142;22.486;2024-01-16T03:45:27;5.40;;;1.80;;
24030;SDS011;12240;51.142;22.486;2024-01-16T03:47:53;3.40;;;1.40;;
24030;SDS011;12240;51.142;22.486;2024-01-16T03:50:19;3.70;;;1.50;;
24030;SDS011;12240;51.142;22.486;2024-01-16T03:52:45;5.40;;;1.90;;
24030;SDS011;12240;51.142;22.486;2024-01-16T03:55:11;8.20;;;2.10;;
24030;SDS011;12240;51.142;22.486;2024-01-16T03:57:36;5.90;;;1.70;;
24030;SDS011;12240;51.142;22.486;2024-01-16T04:00:02;5.90;;;1.80;;
24030;SDS011;12240;51.142;22.486;2024-01-16T04:02:31;4.80;;;1.90;;
24030;SDS011;12240;51.142;22.486;2024-01-16T04:04:57;7.50;;;2.00;;
24030;SDS011;12240;51.142;22.486;2024-01-16T04:07:23;3.50;;;1.70;;
24030;SDS011;12240;51.142;22.486;2024-01-16T04:09:51;3.30;;;1.80;;
24030;SDS011;12240;51.142;22.486;2024-01-16T04:12:17;4.60;;;1.90;;
24030;SDS011;12240;51.142;22.486;2024-01-16T04:14:43;4.00;;;1.70;;
24030;SDS011;12240;51.142;22.486;2024-01-16T04:17:09;5.70;;;1.90;;
24030;SDS011;12240;51.142;22.486;2024-01-16T04:19:35;5.40;;;2.10;;
24030;SDS011;12240;51.142;22.486;2024-01-16T04:22:01;8.20;;;2.30;;
24030;SDS011;12240;51.142;22.486;2024-01-16T04:24:27;6.60;;;2.20;;
24030;SDS011;12240;51.142;22.486;2024-01-16T04:26:53;5.40;;;2.20;;
24030;SDS011;12240;51.142;22.486;2024-01-16T04:29:19;8.00;;;3.10;;
24030;SDS011;12240;51.142;22.486;2024-01-16T04:31:45;6.50;;;2.30;;
24030;SDS011;12240;51.142;22.486;2024-01-16T04:34:11;4.30;;;2.30;;
24030;SDS011;12240;51.142;22.486;2024-01-16T04:36:37;3.80;;;1.70;;
24030;SDS011;12240;51.142;22.486;2024-01-16T04:39:03;6.20;;;1.80;;
24030;SDS011;12240;51.142;22.486;2024-01-16T04:41:29;3.40;;;1.80;;
24030;SDS011;12240;51.142;22.486;2024-01-16T04:43:55;6.30;;;2.40;;
24030;SDS011;12240;51.142;22.486;2024-01-16T04:46:21;4.50;;;2.10;;
24030;SDS011;12240;51.142;22.486;2024-01-16T04:48:47;9.60;;;2.70;;
24030;SDS011;12240;51.142;22.486;2024-01-16T04:51:13;5.20;;;2.30;;
24030;SDS011;12240;51.142;22.486;2024-01-16T04:53:38;5.70;;;2.00;;
24030;SDS011;12240;51.142;22.486;2024-01-16T04:56:06;8.80;;;2.00;;
24030;SDS011;12240;51.142;22.486;2024-01-16T04:58:32;6.30;;;2.40;;
24030;SDS011;12240;51.142;22.486;2024-01-16T05:00:58;7.30;;;2.60;;
24030;SDS011;12240;51.142;22.486;2024-01-16T05:03:24;7.60;;;2.40;;
24030;SDS011;12240;51.142;22.486;2024-01-16T05:05:50;10.20;;;3.10;;
24030;SDS011;12240;51.142;22.486;2024-01-16T05:08:16;7.30;;;3.10;;
24030;SDS011;12240;51.142;22.486;2024-01-16T05:10:43;9.40;;;3.00;;
24030;SDS011;12240;51.142;22.486;2024-01-16T05:13:11;9.80;;;3.00;;
24030;SDS011;12240;51.142;22.486;2024-01-16T05:15:37;9.90;;;2.80;;
24030;SDS011;12240;51.142;22.486;2024-01-16T05:18:04;7.20;;;2.30;;
24030;SDS011;12240;51.142;22.486;2024-01-16T05:20:30;5.80;;;1.90;;
24030;SDS011;12240;51.142;22.486;2024-01-16T05:22:56;10.70;;;2.50;;
24030;SDS011;12240;51.142;22.486;2024-01-16T05:25:22;7.90;;;2.60;;
24030;SDS011;12240;51.142;22.486;2024-01-16T05:27:48;7.90;;;2.80;;
24030;SDS011;12240;51.142;22.486;2024-01-16T05:30:15;6.80;;;2.40;;
24030;SDS011;12240;51.142;22.486;2024-01-16T05:32:41;7.70;;;2.80;;
24030;SDS011;12240;51.142;22.486;2024-01-16T05:35:08;5.60;;;2.30;;
24030;SDS011;12240;51.142;22.486;2024-01-16T05:37:35;5.90;;;2.80;;
24030;SDS011;12240;51.142;22.486;2024-01-16T05:40:01;4.30;;;2.40;;
24030;SDS011;12240;51.142;22.486;2024-01-16T05:42:29;5.00;;;2.20;;
24030;SDS011;12240;51.142;22.486;2024-01-16T05:44:55;5.40;;;2.50;;
24030;SDS011;12240;51.142;22.486;2024-01-16T05:47:21;6.00;;;2.30;;
24030;SDS011;12240;51.142;22.486;2024-01-16T05:49:49;9.30;;;2.20;;
24030;SDS011;12240;51.142;22.486;2024-01-16T05:52:15;15.40;;;3.20;;
24030;SDS011;12240;51.142;22.486;2024-01-16T05:54:41;8.00;;;2.50;;
24030;SDS011;12240;51.142;22.486;2024-01-16T05:57:07;9.00;;;3.00;;
24030;SDS011;12240;51.142;22.486;2024-01-16T05:59:33;6.70;;;2.80;;
24030;SDS011;12240;51.142;22.486;2024-01-16T06:01:59;6.20;;;2.60;;
24030;SDS011;12240;51.142;22.486;2024-01-16T06:04:25;6.40;;;2.40;;
24030;SDS011;12240;51.142;22.486;2024-01-16T06:06:51;6.10;;;2.40;;
24030;SDS011;12240;51.142;22.486;2024-01-16T06:09:17;6.50;;;2.60;;
24030;SDS011;12240;51.142;22.486;2024-01-16T06:11:44;7.00;;;2.80;;
24030;SDS011;12240;51.142;22.486;2024-01-16T06:14:10;8.90;;;2.80;;
24030;SDS011;12240;51.142;22.486;2024-01-16T06:16:37;8.00;;;2.70;;
24030;SDS011;12240;51.142;22.486;2024-01-16T06:19:03;9.40;;;3.10;;
24030;SDS011;12240;51.142;22.486;2024-01-16T06:21:30;4.50;;;2.30;;
24030;SDS011;12240;51.142;22.486;2024-01-16T06:23:56;5.80;;;2.40;;
24030;SDS011;12240;51.142;22.486;2024-01-16T06:26:22;7.60;;;2.80;;
24030;SDS011;12240;51.142;22.486;2024-01-16T06:28:49;5.60;;;2.10;;
24030;SDS011;12240;51.142;22.486;2024-01-16T06:31:15;3.90;;;2.10;;
24030;SDS011;12240;51.142;22.486;2024-01-16T06:33:42;3.60;;;2.00;;
24030;SDS011;12240;51.142;22.486;2024-01-16T06:36:08;10.80;;;3.10;;
24030;SDS011;12240;51.142;22.486;2024-01-16T06:38:34;6.10;;;2.50;;
24030;SDS011;12240;51.142;22.486;2024-01-16T06:41:00;6.50;;;2.60;;
24030;SDS011;12240;51.142;22.486;2024-01-16T06:43:26;7.50;;;2.50;;
24030;SDS011;12240;51.142;22.486;2024-01-16T06:45:52;9.50;;;2.80;;
24030;SDS011;12240;51.142;22.486;2024-01-16T06:48:19;15.30;;;2.50;;
24030;SDS011;12240;51.142;22.486;2024-01-16T06:50:45;7.30;;;2.70;;
24030;SDS011;12240;51.142;22.486;2024-01-16T06:53:11;6.70;;;2.70;;
24030;SDS011;12240;51.142;22.486;2024-01-16T06:55:39;11.10;;;3.10;;
24030;SDS011;12240;51.142;22.486;2024-01-16T06:58:05;8.40;;;2.80;;
24030;SDS011;12240;51.142;22.486;2024-01-16T07:00:31;9.70;;;3.50;;
24030;SDS011;12240;51.142;22.486;2024-01-16T07:02:57;9.20;;;3.00;;
24030;SDS011;12240;51.142;22.486;2024-01-16T07:05:23;8.20;;;3.50;;
24030;SDS011;12240;51.142;22.486;2024-01-16T07:07:49;9.80;;;2.90;;
24030;SDS011;12240;51.142;22.486;2024-01-16T07:10:15;9.70;;;3.00;;
24030;SDS011;12240;51.142;22.486;2024-01-16T07:12:44;7.90;;;3.50;;
24030;SDS011;12240;51.142;22.486;2024-01-16T07:15:10;9.50;;;3.10;;
24030;SDS011;12240;51.142;22.486;2024-01-16T07:17:37;5.50;;;2.40;;
24030;SDS011;12240;51.142;22.486;2024-01-16T07:20:03;8.70;;;3.50;;
24030;SDS011;12240;51.142;22.486;2024-01-16T07:22:29;6.90;;;3.30;;
24030;SDS011;12240;51.142;22.486;2024-01-16T07:24:55;9.30;;;2.50;;
24030;SDS011;12240;51.142;22.486;2024-01-16T07:27:21;7.90;;;2.60;;
24030;SDS011;12240;51.142;22.486;2024-01-16T07:29:47;10.70;;;4.10;;
24030;SDS011;12240;51.142;22.486;2024-01-16T07:32:13;10.20;;;3.40;;
24030;SDS011;12240;51.142;22.486;2024-01-16T07:34:39;10.20;;;3.20;;
24030;SDS011;12240;51.142;22.486;2024-01-16T07:37:05;5.80;;;2.90;;
24030;SDS011;12240;51.142;22.486;2024-01-16T07:39:31;7.90;;;2.60;;
24030;SDS011;12240;51.142;22.486;2024-01-16T07:41:57;9.40;;;3.30;;
24030;SDS011;12240;51.142;22.486;2024-01-16T07:44:23;6.20;;;2.30;;
24030;SDS011;12240;51.142;22.486;2024-01-16T07:46:49;4.00;;;2.00;;
24030;SDS011;12240;51.142;22.486;2024-01-16T07:49:15;9.30;;;3.90;;
24030;SDS011;12240;51.142;22.486;2024-01-16T07:51:42;12.60;;;3.20;;
24030;SDS011;12240;51.142;22.486;2024-01-16T07:54:08;5.60;;;2.00;;
24030;SDS011;12240;51.142;22.486;2024-01-16T07:56:36;2.50;;;1.50;;
24030;SDS011;12240;51.142;22.486;2024-01-16T07:59:03;6.00;;;2.50;;
24030;SDS011;12240;51.142;22.486;2024-01-16T08:01:29;5.10;;;2.10;;
24030;SDS011;12240;51.142;22.486;2024-01-16T08:03:56;6.60;;;2.20;;
24030;SDS011;12240;51.142;22.486;2024-01-16T08:06:22;4.70;;;1.90;;
24030;SDS011;12240;51.142;22.486;2024-01-16T08:08:49;7.40;;;2.60;;
24030;SDS011;12240;51.142;22.486;2024-01-16T08:11:16;4.80;;;2.40;;
24030;SDS011;12240;51.142;22.486;2024-01-16T08:13:44;5.00;;;2.40;;
24030;SDS011;12240;51.142;22.486;2024-01-16T08:16:10;4.40;;;2.30;;
24030;SDS011;12240;51.142;22.486;2024-01-16T08:18:37;8.50;;;3.00;;
24030;SDS011;12240;51.142;22.486;2024-01-16T08:21:04;7.20;;;2.80;;
24030;SDS011;12240;51.142;22.486;2024-01-16T08:23:30;8.30;;;3.10;;
24030;SDS011;12240;51.142;22.486;2024-01-16T08:25:56;5.90;;;2.30;;
24030;SDS011;12240;51.142;22.486;2024-01-16T08:28:22;9.50;;;3.70;;
24030;SDS011;12240;51.142;22.486;2024-01-16T08:30:50;6.40;;;2.70;;
24030;SDS011;12240;51.142;22.486;2024-01-16T08:33:16;13.80;;;4.00;;
24030;SDS011;12240;51.142;22.486;2024-01-16T08:35:42;15.70;;;4.10;;
24030;SDS011;12240;51.142;22.486;2024-01-16T08:38:09;11.70;;;3.30;;
24030;SDS011;12240;51.142;22.486;2024-01-16T08:40:34;6.80;;;2.80;;
24030;SDS011;12240;51.142;22.486;2024-01-16T08:43:00;11.60;;;3.90;;
24030;SDS011;12240;51.142;22.486;2024-01-16T08:45:27;7.90;;;3.50;;
24030;SDS011;12240;51.142;22.486;2024-01-16T08:47:53;10.30;;;3.60;;
24030;SDS011;12240;51.142;22.486;2024-01-16T08:50:19;9.60;;;2.70;;
24030;SDS011;12240;51.142;22.486;2024-01-16T08:52:45;10.60;;;3.50;;
24030;SDS011;12240;51.142;22.486;2024-01-16T08:55:11;6.30;;;2.70;;
24030;SDS011;12240;51.142;22.486;2024-01-16T08:57:37;15.30;;;3.60;;
24030;SDS011;12240;51.142;22.486;2024-01-16T09:00:04;19.60;;;3.70;;
24030;SDS011;12240;51.142;22.486;2024-01-16T09:02:31;9.90;;;3.60;;
24030;SDS011;12240;51.142;22.486;2024-01-16T09:04:57;9.80;;;3.80;;
24030;SDS011;12240;51.142;22.486;2024-01-16T09:07:24;9.10;;;3.20;;
24030;SDS011;12240;51.142;22.486;2024-01-16T09:09:50;9.20;;;3.80;;
24030;SDS011;12240;51.142;22.486;2024-01-16T09:12:17;13.70;;;4.60;;
24030;SDS011;12240;51.142;22.486;2024-01-16T09:14:42;8.40;;;3.40;;
24030;SDS011;12240;51.142;22.486;2024-01-16T09:17:09;12.50;;;4.60;;
24030;SDS011;12240;51.142;22.486;2024-01-16T09:19:35;11.80;;;4.10;;
24030;SDS011;12240;51.142;22.486;2024-01-16T09:22:01;12.20;;;3.40;;
24030;SDS011;12240;51.142;22.486;2024-01-16T09:24:29;16.60;;;4.10;;
24030;SDS011;12240;51.142;22.486;2024-01-16T09:26:56;11.20;;;4.10;;
24030;SDS011;12240;51.142;22.486;2024-01-16T09:29:23;12.60;;;4.00;;
24030;SDS011;12240;51.142;22.486;2024-01-16T09:31:50;9.00;;;2.90;;
24030;SDS011;12240;51.142;22.486;2024-01-16T09:34:17;9.80;;;3.50;;
24030;SDS011;12240;51.142;22.486;2024-01-16T09:36:43;10.30;;;4.40;;
24030;SDS011;12240;51.142;22.486;2024-01-16T09:39:09;10.90;;;3.80;;
24030;SDS011;12240;51.142;22.486;2024-01-16T09:41:45;11.60;;;3.50;;
24030;SDS011;12240;51.142;22.486;2024-01-16T09:44:11;8.60;;;3.60;;
24030;SDS011;12240;51.142;22.486;2024-01-16T09:46:38;11.10;;;4.20;;
24030;SDS011;12240;51.142;22.486;2024-01-16T09:49:06;8.70;;;3.40;;
24030;SDS011;12240;51.142;22.486;2024-01-16T09:51:34;9.40;;;3.30;;
24030;SDS011;12240;51.142;22.486;2024-01-16T09:54:00;12.50;;;4.50;;
24030;SDS011;12240;51.142;22.486;2024-01-16T09:56:27;10.30;;;4.00;;
24030;SDS011;12240;51.142;22.486;2024-01-16T09:58:57;5.50;;;2.70;;
24030;SDS011;12240;51.142;22.486;2024-01-16T10:01:27;10.10;;;4.20;;
24030;SDS011;12240;51.142;22.486;2024-01-16T10:03:54;16.00;;;4.70;;
24030;SDS011;12240;51.142;22.486;2024-01-16T10:06:20;9.30;;;3.70;;
24030;SDS011;12240;51.142;22.486;2024-01-16T10:08:48;10.50;;;3.60;;
24030;SDS011;12240;51.142;22.486;2024-01-16T10:11:14;10.10;;;4.20;;
24030;SDS011;12240;51.142;22.486;2024-01-16T10:13:40;8.10;;;3.60;;
24030;SDS011;12240;51.142;22.486;2024-01-16T10:16:06;10.70;;;3.80;;
24030;SDS011;12240;51.142;22.486;2024-01-16T10:18:33;8.50;;;3.20;;
24030;SDS011;12240;51.142;22.486;2024-01-16T10:21:04;15.00;;;4.50;;
24030;SDS011;12240;51.142;22.486;2024-01-16T10:23:31;10.90;;;3.50;;
24030;SDS011;12240;51.142;22.486;2024-01-16T10:28:34;11.60;;;4.40;;
24030;SDS011;12240;51.142;22.486;2024-01-16T10:31:07;15.60;;;4.80;;
24030;SDS011;12240;51.142;22.486;2024-01-16T10:33:34;14.20;;;3.60;;
24030;SDS011;12240;51.142;22.486;2024-01-16T10:38:37;16.70;;;6.20;;
24030;SDS011;12240;51.142;22.486;2024-01-16T10:41:11;12.50;;;4.00;;
24030;SDS011;12240;51.142;22.486;2024-01-16T10:43:38;9.60;;;4.20;;
24030;SDS011;12240;51.142;22.486;2024-01-16T10:46:22;10.00;;;3.60;;
24030;SDS011;12240;51.142;22.486;2024-01-16T10:48:59;16.00;;;5.90;;
24030;SDS011;12240;51.142;22.486;2024-01-16T10:51:27;11.90;;;4.80;;
24030;SDS011;12240;51.142;22.486;2024-01-16T10:53:56;21.10;;;6.70;;
24030;SDS011;12240;51.142;22.486;2024-01-16T10:56:26;12.90;;;5.20;;
24030;SDS011;12240;51.142;22.486;2024-01-16T10:58:57;17.30;;;5.60;;
24030;SDS011;12240;51.142;22.486;2024-01-16T11:01:50;14.50;;;5.20;;
24030;SDS011;12240;51.142;22.486;2024-01-16T11:04:20;15.40;;;5.40;;
24030;SDS011;12240;51.142;22.486;2024-01-16T11:06:51;13.50;;;4.40;;
24030;SDS011;12240;51.142;22.486;2024-01-16T11:09:18;13.20;;;5.60;;
24030;SDS011;12240;51.142;22.486;2024-01-16T11:11:46;8.70;;;3.90;;
24030;SDS011;12240;51.142;22.486;2024-01-16T11:14:14;13.30;;;4.40;;
24030;SDS011;12240;51.142;22.486;2024-01-16T11:16:40;21.30;;;7.60;;
24030;SDS011;12240;51.142;22.486;2024-01-16T11:19:08;20.70;;;7.40;;
24030;SDS011;12240;51.142;22.486;2024-01-16T11:21:56;10.00;;;4.10;;
24030;SDS011;12240;51.142;22.486;2024-01-16T11:24:24;11.60;;;5.10;;
24030;SDS011;12240;51.142;22.486;2024-01-16T11:26:50;12.30;;;5.30;;
24030;SDS011;12240;51.142;22.486;2024-01-16T11:31:54;16.50;;;5.50;;
24030;SDS011;12240;51.142;22.486;2024-01-16T11:37:09;16.60;;;6.30;;
24030;SDS011;12240;51.142;22.486;2024-01-16T11:39:37;11.70;;;4.50;;
24030;SDS011;12240;51.142;22.486;2024-01-16T11:42:03;11.50;;;4.70;;
24030;SDS011;12240;51.142;22.486;2024-01-16T11:44:35;10.10;;;4.10;;
24030;SDS011;12240;51.142;22.486;2024-01-16T11:49:47;12.20;;;4.80;;
24030;SDS011;12240;51.142;22.486;2024-01-16T11:52:14;13.00;;;4.90;;
24030;SDS011;12240;51.142;22.486;2024-01-16T11:54:41;21.00;;;6.60;;
24030;SDS011;12240;51.142;22.486;2024-01-16T12:05:11;24.40;;;9.00;;
24030;SDS011;12240;51.142;22.486;2024-01-16T12:07:47;22.30;;;7.80;;
24030;SDS011;12240;51.142;22.486;2024-01-16T12:10:22;24.70;;;7.80;;
24030;SDS011;12240;51.142;22.486;2024-01-16T12:12:50;14.80;;;5.60;;
24030;SDS011;12240;51.142;22.486;2024-01-16T12:17:55;10.20;;;3.60;;
24030;SDS011;12240;51.142;22.486;2024-01-16T12:20:29;14.60;;;5.20;;
24030;SDS011;12240;51.142;22.486;2024-01-16T12:23:00;17.00;;;6.10;;
24030;SDS011;12240;51.142;22.486;2024-01-16T12:25:34;13.50;;;5.90;;
24030;SDS011;12240;51.142;22.486;2024-01-16T12:28:21;21.60;;;7.40;;
24030;SDS011;12240;51.142;22.486;2024-01-16T12:30:58;16.30;;;4.80;;
24030;SDS011;12240;51.142;22.486;2024-01-16T12:33:26;16.60;;;6.30;;
24030;SDS011;12240;51.142;22.486;2024-01-16T12:36:00;18.30;;;6.70;;
24030;SDS011;12240;51.142;22.486;2024-01-16T12:38:29;12.70;;;5.00;;
24030;SDS011;12240;51.142;22.486;2024-01-16T12:40:56;21.70;;;6.60;;
24030;SDS011;12240;51.142;22.486;2024-01-16T12:43:24;13.90;;;6.00;;
24030;SDS011;12240;51.142;22.486;2024-01-16T12:45:56;14.40;;;6.00;;
24030;SDS011;12240;51.142;22.486;2024-01-16T12:48:24;20.60;;;6.80;;
24030;SDS011;12240;51.142;22.486;2024-01-16T12:50:59;18.40;;;7.30;;
24030;SDS011;12240;51.142;22.486;2024-01-16T12:53:29;17.60;;;6.30;;
24030;SDS011;12240;51.142;22.486;2024-01-16T12:55:59;16.60;;;5.70;;
24030;SDS011;12240;51.142;22.486;2024-01-16T12:58:35;20.50;;;6.80;;
24030;SDS011;12240;51.142;22.486;2024-01-16T13:04:03;16.10;;;5.80;;
24030;SDS011;12240;51.142;22.486;2024-01-16T13:06:30;16.80;;;5.50;;
24030;SDS011;12240;51.142;22.486;2024-01-16T13:09:07;16.60;;;5.70;;
24030;SDS011;12240;51.142;22.486;2024-01-16T13:12:19;20.20;;;6.70;;
24030;SDS011;12240;51.142;22.486;2024-01-16T13:14:31;18.70;;;6.10;;
24030;SDS011;12240;51.142;22.486;2024-01-16T13:16:57;14.60;;;5.50;;
24030;SDS011;12240;51.142;22.486;2024-01-16T13:19:24;20.60;;;6.60;;
24030;SDS011;12240;51.142;22.486;2024-01-16T13:21:52;18.60;;;6.40;;
24030;SDS011;12240;51.142;22.486;2024-01-16T13:24:20;27.70;;;7.90;;
24030;SDS011;12240;51.142;22.486;2024-01-16T13:26:50;15.80;;;6.10;;
24030;SDS011;12240;51.142;22.486;2024-01-16T13:29:17;17.10;;;6.00;;
24030;SDS011;12240;51.142;22.486;2024-01-16T13:31:45;16.70;;;6.80;;
24030;SDS011;12240;51.142;22.486;2024-01-16T13:34:12;16.50;;;5.80;;
24030;SDS011;12240;51.142;22.486;2024-01-16T13:36:39;18.30;;;4.60;;
24030;SDS011;12240;51.142;22.486;2024-01-16T13:39:27;15.60;;;5.20;;
24030;SDS011;12240;51.142;22.486;2024-01-16T13:41:54;16.70;;;5.20;;
24030;SDS011;12240;51.142;22.486;2024-01-16T13:44:21;15.80;;;6.00;;
24030;SDS011;12240;51.142;22.486;2024-01-16T13:46:47;16.30;;;4.70;;
24030;SDS011;12240;51.142;22.486;2024-01-16T13:49:31;15.10;;;4.60;;
24030;SDS011;12240;51.142;22.486;2024-01-16T13:52:00;12.80;;;5.20;;
24030;SDS011;12240;51.142;22.486;2024-01-16T13:54:27;25.50;;;6.80;;
24030;SDS011;12240;51.142;22.486;2024-01-16T13:56:53;20.10;;;5.30;;
24030;SDS011;12240;51.142;22.486;2024-01-16T13:59:32;19.10;;;7.20;;
24030;SDS011;12240;51.142;22.486;2024-01-16T14:01:59;33.70;;;10.20;;
24030;SDS011;12240;51.142;22.486;2024-01-16T14:04:28;47.80;;;11.80;;
24030;SDS011;12240;51.142;22.486;2024-01-16T14:06:54;38.80;;;10.40;;
24030;SDS011;12240;51.142;22.486;2024-01-16T14:09:38;44.30;;;11.50;;
24030;SDS011;12240;51.142;22.486;2024-01-16T14:12:08;42.30;;;12.00;;
24030;SDS011;12240;51.142;22.486;2024-01-16T14:14:35;33.20;;;10.00;;
24030;SDS011;12240;51.142;22.486;2024-01-16T14:17:04;28.30;;;8.80;;
24030;SDS011;12240;51.142;22.486;2024-01-16T14:19:31;24.50;;;6.80;;
24030;SDS011;12240;51.142;22.486;2024-01-16T14:22:00;19.50;;;7.00;;
24030;SDS011;12240;51.142;22.486;2024-01-16T14:24:27;29.20;;;7.80;;
24030;SDS011;12240;51.142;22.486;2024-01-16T14:26:54;32.10;;;8.00;;
24030;SDS011;12240;51.142;22.486;2024-01-16T14:29:23;29.40;;;8.70;;
24030;SDS011;12240;51.142;22.486;2024-01-16T14:31:49;25.10;;;8.00;;
24030;SDS011;12240;51.142;22.486;2024-01-16T14:34:16;26.20;;;6.90;;
24030;SDS011;12240;51.142;22.486;2024-01-16T14:36:45;34.90;;;9.50;;
24030;SDS011;12240;51.142;22.486;2024-01-16T14:39:12;35.80;;;10.40;;
24030;SDS011;12240;51.142;22.486;2024-01-16T14:41:44;28.90;;;8.80;;
24030;SDS011;12240;51.142;22.486;2024-01-16T14:44:12;35.40;;;11.60;;
24030;SDS011;12240;51.142;22.486;2024-01-16T14:46:42;61.60;;;15.10;;
24030;SDS011;12240;51.142;22.486;2024-01-16T14:49:13;45.70;;;12.90;;
24030;SDS011;12240;51.142;22.486;2024-01-16T14:51:40;29.60;;;9.00;;
24030;SDS011;12240;51.142;22.486;2024-01-16T14:54:07;33.20;;;9.60;;
24030;SDS011;12240;51.142;22.486;2024-01-16T14:56:34;31.40;;;8.20;;
24030;SDS011;12240;51.142;22.486;2024-01-16T14:59:00;25.80;;;6.80;;
24030;SDS011;12240;51.142;22.486;2024-01-16T15:01:27;31.20;;;9.90;;
24030;SDS011;12240;51.142;22.486;2024-01-16T15:03:54;39.70;;;10.00;;
24030;SDS011;12240;51.142;22.486;2024-01-16T15:06:21;30.60;;;9.10;;
24030;SDS011;12240;51.142;22.486;2024-01-16T15:08:48;24.40;;;7.60;;
24030;SDS011;12240;51.142;22.486;2024-01-16T15:11:15;30.50;;;8.80;;
24030;SDS011;12240;51.142;22.486;2024-01-16T15:13:43;22.10;;;6.30;;
24030;SDS011;12240;51.142;22.486;2024-01-16T15:16:11;29.00;;;9.60;;